Latest Weather Observations for Minlaton Airport

IDS60801

Issued at 6:31 am CDT Monday 22 December 2014 (issued every 30 minutes, with the page automatically refreshed every 10 minutes)

About weather observations | Map of weather stations | Latest weather observations for SA | Other Formats
Station Details ID: 022031 Name: MINLATON AERO Lat: -34.75 Lon: 137.53 Height: 32.0 m
Data from the previous 72 hours. | See also: Recent months at Minlaton Airport
Date/Time
CDT
Temp
°C
App
Temp
°C
Dew
Point
Rel
Hum
%
Delta-T
°C
Wind Press
QNH
hPa
Press
MSL
hPa
Rain
since 9 am
mm
Dir
 
Spd
km/h
Gust
km/h
Spd
kts
Gust
kts
22/06:30am 19.2 15.5 15.1 77 2.4 ESE 28 35 15 19 1005.7 1005.6 0.0
22/06:00am 19.1 15.3 14.8 76 2.5 E 28 37 15 20 1005.7 1005.6 0.0
22/05:30am 18.9 15.4 14.6 76 2.5 ESE 26 35 14 19 1005.8 1005.7 0.0
22/05:00am 18.7 15.6 14.6 77 2.4 SSE 24 32 13 17 1005.8 1005.7 0.0
22/04:30am 18.5 14.7 14.6 78 2.3 SE 28 37 15 20 1006.0 1005.9 0.0
22/04:00am 18.3 14.8 14.6 79 2.1 SSE 26 32 14 17 1006.6 1006.5 0.0
22/03:30am 18.5 15.1 14.8 79 2.2 SSE 26 33 14 18 1006.6 1006.5 0.0
22/03:00am 18.2 15.2 14.7 80 2.0 SSE 24 32 13 17 1006.9 1006.8 0.0
22/02:30am 17.9 15.6 14.6 81 1.9 S 20 33 11 18 1007.6 1007.5 0.0
22/02:00am 17.6 13.3 14.5 82 1.8 SSE 30 39 16 21 1007.2 1007.1 0.0
22/01:30am 17.8 12.8 14.1 79 2.1 SSE 33 43 18 23 1008.3 1008.2 0.0
22/01:00am 17.9 13.9 14.2 79 2.1 SSE 28 37 15 20 1009.3 1009.2 0.0
22/12:30am 17.9 13.2 14.2 79 2.1 SSE 32 41 17 22 1009.7 1009.6 0.0
22/12:00am 17.9 13.0 14.2 79 2.1 SSE 33 48 18 26 1009.8 1009.7 0.0
 
Date/Time
CDT
Temp
°C
App
Temp
°C
Dew
Point
Rel
Hum
%
Delta-T
°C
Wind Press
QNH
hPa
Press
MSL
hPa
Rain
since 9 am
mm
Dir
 
Spd
km/h
Gust
km/h
Spd
kts
Gust
kts
21/11:30pm 18.1 12.8 14.2 78 2.2 SSE 35 44 19 24 1009.8 1009.7 0.0
21/11:00pm 18.5 12.9 14.4 77 2.4 SSE 37 46 20 25 1010.5 1010.4 0.0
21/10:30pm 18.9 13.0 14.6 76 2.5 SSE 39 50 21 27 1009.7 1009.6 0.0
21/10:06pm 19.2 13.3 13.6 70 3.2 SSE 37 56 20 30 1009.7 1009.6 0.0
21/10:00pm 19.2 13.2 13.4 69 3.3 SSE 37 48 20 26 1010.1 1010.0 0.0
21/09:30pm 19.3 14.6 14.3 73 2.9 SSE 32 39 17 21 1010.9 1010.8 0.0
21/09:00pm 19.6 14.9 14.4 72 3.0 S 32 43 17 23 1010.9 1010.8 0.0
21/08:30pm 20.2 17.6 14.8 71 3.2 S 22 30 12 16 1010.8 1010.7 0.0
21/08:00pm 21.1 17.9 14.3 65 4.0 S 24 32 13 17 1009.9 1009.8 0.0
21/07:30pm 23.5 20.1 13.7 54 5.7 S 24 32 13 17 1009.3 1009.2 0.0
21/07:00pm 24.4 20.7 13.9 52 6.2 SSE 26 39 14 21 1008.0 1007.9 0.0
21/06:30pm 25.9 21.0 12.7 44 7.7 SE 30 39 16 21 1007.6 1007.5 0.0
21/06:00pm 27.0 21.1 11.1 37 9.1 SE 33 43 18 23 1007.5 1007.4 0.0
21/05:30pm 28.3 21.2 9.6 31 10.4 ESE 37 50 20 27 1007.4 1007.3 0.0
21/05:00pm 28.0 21.5 10.2 33 10.0 SE 35 46 19 25 1007.9 1007.8 0.0
21/04:30pm 28.5 22.2 11.1 34 10.0 SE 35 41 19 22 1008.1 1008.0 0.0
21/04:00pm 31.2 25.5 11.1 29 11.6 SE 32 43 17 23 1008.8 1008.7 0.0
21/03:30pm 30.8 24.9 11.2 30 11.4 SSE 33 41 18 22 1009.1 1009.0 0.0
21/03:00pm 32.6 28.5 10.0 25 13.0 SSE 22 33 12 18 1009.3 1009.2 0.0
21/02:30pm 32.7 29.0 4.5 17 14.8 S 13 19 7 10 1009.8 1009.7 0.0
21/02:00pm 32.0 27.9 6.2 20 13.9 WSW 17 20 9 11 1010.6 1010.5 0.0
21/01:30pm 31.9 28.7 6.9 21 13.6 WSW 13 22 7 12 1010.9 1010.8 0.0
21/01:00pm 30.1 26.7 9.1 27 11.7 WSW 17 28 9 15 1011.5 1011.4 0.0
21/12:30pm 30.6 26.3 9.5 27 11.9 WNW 22 33 12 18 1011.4 1011.3 0.0
21/12:00pm 32.8 25.7 5.4 18 14.6 NNW 32 41 17 22 1011.3 1011.2 0.0
21/11:30am 32.0 24.0 3.9 17 14.5 NNW 35 46 19 25 1011.0 1010.9 0.0
21/11:00am 31.5 22.2 2.7 16 14.6 NNW 41 48 22 26 1010.9 1010.8 0.0
21/10:30am 32.8 23.3 1.8 14 15.6 NNW 41 50 22 27 1010.6 1010.5 0.0
21/10:00am 31.7 22.8 2.8 16 14.7 NNW 39 50 21 27 1010.8 1010.7 0.0
21/09:30am 32.0 24.1 2.1 15 15.0 N 33 44 18 24 1010.7 1010.6 0.0
21/09:00am 31.5 24.9 4.3 18 14.1 N 28 37 15 20 1010.6 1010.5 0.0
21/08:30am 28.6 22.3 5.5 23 12.0 N 28 35 15 19 1010.5 1010.4 0.0
21/08:00am 26.1 20.5 8.6 33 9.5 NE 28 35 15 19 1010.0 1009.9 0.0
21/07:30am 22.9 19.5 11.3 48 6.5 NE 20 26 11 14 1010.4 1010.3 0.0
21/07:00am 20.2 17.4 13.2 64 4.0 ENE 20 30 11 16 1010.2 1010.1 0.0
21/06:30am 17.9 14.5 13.6 76 2.4 E 24 33 13 18 1009.9 1009.8 0.0
21/06:00am 17.8 13.9 13.3 75 2.5 ENE 26 30 14 16 1009.8 1009.7 0.0
21/05:30am 17.5 14.2 14.0 80 2.0 E 24 28 13 15 1009.8 1009.7 0.0
21/05:00am 17.1 13.5 14.2 83 1.7 E 26 30 14 16 1009.9 1009.8 0.0
21/04:30am 17.1 13.6 14.4 84 1.6 E 26 30 14 16 1010.0 1009.9 0.0
21/04:00am 16.9 13.3 14.2 84 1.5 E 26 30 14 16 1010.2 1010.1 0.0
21/03:30am 17.2 13.6 14.3 83 1.7 E 26 30 14 16 1010.3 1010.2 0.0
21/03:00am 16.9 13.7 14.2 84 1.5 E 24 28 13 15 1010.6 1010.5 0.0
21/02:30am 16.9 13.3 14.2 84 1.5 E 26 32 14 17 1010.9 1010.8 0.0
21/02:00am 16.9 14.1 14.2 84 1.5 E 22 30 12 16 1011.2 1011.1 0.0
21/01:30am 15.7 14.9 13.0 84 1.5 SSE 9 13 5 7 1012.3 1012.2 0.0
21/01:00am 17.2 14.3 14.1 82 1.8 E 22 26 12 14 1012.2 1012.1 0.0
21/12:30am 17.4 14.7 14.5 83 1.7 ESE 22 33 12 18 1012.3 1012.2 0.0
21/12:00am 17.6 14.1 14.5 82 1.8 ESE 26 32 14 17 1012.3 1012.2 0.0
 
Date/Time
CDT
Temp
°C
App
Temp
°C
Dew
Point
Rel
Hum
%
Delta-T
°C
Wind Press
QNH
hPa
Press
MSL
hPa
Rain
since 9 am
mm
Dir
 
Spd
km/h
Gust
km/h
Spd
kts
Gust
kts
20/11:30pm 17.9 14.0 14.4 80 2.0 ESE 28 33 15 18 1012.4 1012.3 0.0
20/11:00pm 18.1 14.1 14.0 77 2.3 ESE 28 35 15 19 1012.7 1012.6 0.0
20/10:30pm 18.2 15.5 14.5 79 2.1 SE 22 30 12 16 1013.0 1012.9 0.0
20/10:00pm 18.4 15.8 13.9 75 2.6 SE 20 24 11 13 1013.4 1013.3 0.0
20/09:30pm 19.1 16.5 13.1 68 3.4 SE 19 26 10 14 1013.5 1013.4 0.0
20/09:00pm 19.9 16.7 11.9 60 4.4 SE 20 26 11 14 1013.6 1013.5 0.0
20/08:30pm 21.0 17.5 10.2 50 5.9 SE 19 26 10 14 1013.7 1013.6 0.0
20/08:00pm 23.0 18.0 7.9 38 7.9 SE 24 28 13 15 1013.7 1013.6 0.0
20/07:30pm 25.0 20.1 6.7 31 9.5 SSE 22 28 12 15 1013.6 1013.5 0.0
20/07:00pm 26.1 21.3 7.2 30 10.0 SE 22 28 12 15 1013.3 1013.2 0.0
20/06:30pm 27.2 22.6 6.6 27 10.8 SE 20 26 11 14 1013.1 1013.0 0.0
20/06:00pm 27.9 23.4 6.1 25 11.4 SSE 19 28 10 15 1013.0 1012.9 0.0
20/05:30pm 28.3 24.2 6.4 25 11.6 SSE 17 28 9 15 1013.1 1013.0 0.0
20/05:00pm 28.0 25.0 7.8 28 10.9 SE 13 20 7 11 1013.5 1013.4 0.0
20/04:30pm 28.3 25.5 8.6 29 10.8 SSW 13 20 7 11 1014.0 1013.9 0.0
20/04:00pm 28.4 25.5 9.6 31 10.5 SSW 15 24 8 13 1014.3 1014.2 0.0
20/03:30pm 28.0 26.0 8.8 30 10.5 E 9 20 5 11 1014.5 1014.4 0.0
20/03:00pm 28.1 24.6 8.9 30 10.6 S 17 28 9 15 1014.9 1014.8 0.0
20/02:30pm 26.9 21.9 7.9 30 10.2 SE 24 35 13 19 1015.3 1015.2 0.0
20/02:00pm 27.3 23.1 8.2 30 10.3 WSW 20 28 11 15 1015.8 1015.7 0.0
20/01:30pm 26.5 22.5 8.9 33 9.6 WSW 20 26 11 14 1016.4 1016.3 0.0
20/01:00pm 25.6 21.5 8.6 34 9.2 W 20 26 11 14 1016.9 1016.8 0.0
20/12:30pm 25.3 21.4 8.7 35 9.0 WSW 19 26 10 14 1017.3 1017.2 0.0
20/12:00pm 24.0 20.0 8.4 37 8.3 NNW 19 28 10 15 1017.8 1017.7 0.0
20/11:30am 24.1 22.3 8.1 36 8.5 E 7 13 4 7 1018.0 1017.9 0.0
20/11:00am 23.6 20.9 8.8 39 7.9 ENE 13 20 7 11 1018.2 1018.1 0.0
20/10:30am 22.8 20.3 8.1 39 7.7 E 11 17 6 9 1018.6 1018.5 0.0
20/10:00am 22.0 20.5 9.2 44 6.9 NE 7 15 4 8 1018.8 1018.7 0.0
20/09:30am 21.1 18.4 9.0 46 6.4 NE 13 20 7 11 1019.1 1019.0 0.0
20/09:00am 19.9 17.6 10.6 55 5.0 E 13 20 7 11 1019.3 1019.2 0.0
20/08:30am 18.8 16.5 10.6 59 4.4 ENE 13 17 7 9 1019.4 1019.3 0.0
20/08:00am 18.3 15.5 11.4 64 3.8 ESE 17 20 9 11 1019.2 1019.1 0.0
20/07:30am 16.4 14.7 11.3 72 2.7 ESE 11 15 6 8 1018.7 1018.6 0.0
20/07:00am 13.1 10.8 10.6 85 1.3 ESE 13 15 7 8 1018.7 1018.6 0.0
20/06:30am 10.7 7.6 9.0 89 0.8 ESE 15 17 8 9 1018.6 1018.5 0.0
20/06:00am 9.3 6.3 7.7 90 0.8 E 13 13 7 7 1018.7 1018.6 0.0
20/05:30am 10.2 8.1 8.3 88 0.9 E 9 11 5 6 1018.6 1018.5 0.0
20/05:00am 9.6 6.6 7.7 88 0.9 ESE 13 13 7 7 1018.2 1018.1 0.0
20/04:30am 10.0 7.0 7.9 87 1.0 ESE 13 15 7 8 1018.0 1017.9 0.0
20/04:00am 10.1 7.1 7.9 86 1.1 ESE 13 15 7 8 1018.0 1017.9 0.0
20/03:30am 10.6 7.3 8.2 85 1.2 ESE 15 17 8 9 1018.1 1018.0 0.0
20/03:00am 11.5 7.7 8.9 84 1.3 ESE 19 19 10 10 1018.3 1018.2 0.0
20/02:30am 12.2 8.4 9.2 82 1.5 SE 19 20 10 11 1018.5 1018.4 0.0
20/02:00am 12.3 8.9 9.1 81 1.6 SE 17 20 9 11 1018.8 1018.7 0.0
20/01:30am 12.7 9.8 9.5 81 1.6 SE 15 17 8 9 1019.3 1019.2 0.0
20/01:00am 12.8 9.4 9.3 79 1.8 SE 17 19 9 10 1019.7 1019.6 0.0
20/12:30am 13.0 9.6 9.3 78 1.9 SE 17 19 9 10 1020.1 1020.0 0.0
20/12:00am 13.7 10.4 9.6 76 2.1 SE 17 20 9 11 1020.2 1020.1 0.0
 
Date/Time
CDT
Temp
°C
App
Temp
°C
Dew
Point
Rel
Hum
%
Delta-T
°C
Wind Press
QNH
hPa
Press
MSL
hPa
Rain
since 9 am
mm
Dir
 
Spd
km/h
Gust
km/h
Spd
kts
Gust
kts
19/11:30pm 14.4 10.8 10.0 75 2.3 SE 19 20 10 11 1020.3 1020.2 0.0
19/11:00pm 14.4 10.6 9.8 74 2.4 SE 20 22 11 12 1020.6 1020.5 0.0
19/10:30pm 14.7 11.4 9.5 71 2.7 SE 17 19 9 10 1020.8 1020.7 0.0
19/10:00pm 15.2 11.8 9.3 68 3.0 SE 17 20 9 11 1020.6 1020.5 0.0
19/09:30pm 15.6 12.3 9.5 67 3.2 SE 17 20 9 11 1020.5 1020.4 0.0
19/09:00pm 16.2 12.5 9.4 64 3.5 SSE 19 22 10 12 1020.4 1020.3 0.0
19/08:30pm 17.4 12.7 9.1 58 4.3 SSE 24 30 13 16 1020.3 1020.2 0.0
19/08:00pm 18.6 13.9 9.1 54 5.0 S 24 32 13 17 1020.4 1020.3 0.0
19/07:30pm 19.6 14.1 9.2 51 5.5 SSE 28 33 15 18 1020.2 1020.1 0.0
19/07:00pm 20.8 15.6 8.8 46 6.3 S 26 33 14 18 1019.8 1019.7 0.0
19/06:30pm 21.7 16.7 7.9 41 7.2 S 24 33 13 18 1019.6 1019.5 0.0
19/06:00pm 21.4 16.1 11.1 52 5.7 WSW 30 35 16 19 1019.4 1019.3 0.0
19/05:30pm 21.4 15.5 10.3 49 6.0 W 32 39 17 21 1019.4 1019.3 0.0
19/05:00pm 21.6 16.0 10.1 48 6.2 W 30 37 16 20 1019.5 1019.4 0.0
19/04:30pm 21.5 15.3 9.4 46 6.5 W 32 37 17 20 1019.8 1019.7 0.0
19/04:00pm 22.3 16.1 9.5 44 6.9 W 32 37 17 20 1020.0 1019.9 0.0
19/03:30pm 21.6 15.2 8.5 43 6.9 W 32 41 17 22 1020.1 1020.0 0.0
19/03:00pm 21.3 15.2 8.2 43 6.8 W 30 39 16 21 1020.2 1020.1 0.0
19/02:30pm 21.7 15.6 8.2 42 7.1 W 30 39 16 21 1020.4 1020.3 0.0
19/02:00pm 22.2 15.7 8.0 40 7.4 WSW 32 37 17 20 1020.5 1020.4 0.0
19/01:30pm 21.2 14.4 6.7 39 7.4 W 32 41 17 22 1020.5 1020.4 0.0
19/01:00pm 21.1 14.5 7.7 42 6.9 W 32 39 17 21 1020.7 1020.6 0.0
19/12:30pm 21.2 15.2 7.1 40 7.2 W 28 39 15 21 1020.8 1020.7 0.0
19/12:00pm 21.3 15.2 6.4 38 7.5 W 28 39 15 21 1020.8 1020.7 0.0
19/11:30am 21.2 15.4 6.3 38 7.5 WSW 26 35 14 19 1020.9 1020.8 0.0
19/11:00am 20.4 15.2 7.4 43 6.7 W 24 32 13 17 1020.8 1020.7 0.0
19/10:30am 20.5 17.1 6.1 39 7.2 SW 13 28 7 15 1020.9 1020.8 0.0
19/10:00am 19.4 15.5 5.5 40 6.8 SSE 15 24 8 13 1021.0 1020.9 0.0
19/09:30am 18.6 15.6 5.8 43 6.3 SSE 11 22 6 12 1020.9 1020.8 0.0
19/09:00am 18.1 15.5 7.8 51 5.2 SSW 11 20 6 11 1020.6 1020.5 0.0
19/08:30am 17.2 14.1 7.3 52 4.9 S 13 20 7 11 1020.3 1020.2 0.0
19/08:00am 16.5 14.2 7.4 55 4.5 S 9 13 5 7 1019.9 1019.8 0.0
19/07:30am 14.6 12.4 7.9 64 3.3 SE 9 11 5 6 1019.6 1019.5 0.0
19/07:00am 11.4 8.6 7.1 75 2.1 SE 11 11 6 6 1019.2 1019.1 0.0

Other Formats:

Comma delimited format used in spreadsheet applications
http://www.bom.gov.au/fwo/IDS60801/IDS60801.95659.axf

JavaScript Object Notation format (JSON) in row-major order
http://www.bom.gov.au/fwo/IDS60801/IDS60801.95659.json